createdAt,value
2017-06-19T00:01:10.586Z,73.71
2017-06-19T00:03:41.858Z,74.11
2017-06-19T00:06:14.134Z,74.63
2017-06-19T00:08:50.769Z,75.46
2017-06-19T00:11:22.116Z,75.52
2017-06-19T00:13:51.338Z,74.74
2017-06-19T00:16:26.930Z,74.29
2017-06-19T00:18:54.624Z,74.07
2017-06-19T00:21:27.532Z,74.03
2017-06-19T00:24:00.660Z,73.76
2017-06-19T00:26:33.926Z,73.58
2017-06-19T00:29:06.588Z,74.11
2017-06-19T00:31:35.600Z,73.42
2017-06-19T00:34:15.714Z,72.87
2017-06-19T00:36:45.751Z,72.85
2017-06-19T00:39:17.769Z,72.32
2017-06-19T00:41:52.354Z,72.82
2017-06-19T00:44:19.892Z,72.52
2017-06-19T00:46:57.240Z,71.72
2017-06-19T00:49:37.182Z,71.12
2017-06-19T00:52:29.545Z,70.95
2017-06-19T00:55:02.085Z,71.11
2017-06-19T00:57:45.938Z,71.04
2017-06-19T01:03:14.235Z,71.86
2017-06-19T01:08:52.145Z,71.65
2017-06-19T01:14:01.005Z,71.56
2017-06-19T01:36:58.580Z,71.49
2017-06-19T01:39:33.293Z,70.59
2017-06-19T01:42:18.615Z,70.55
2017-06-19T01:44:59.117Z,70.72
2017-06-19T01:51:33.676Z,70.57
2017-06-19T01:54:16.283Z,70.18
2017-06-19T01:56:56.124Z,69.80
2017-06-19T01:59:32.250Z,69.39
2017-06-19T02:02:12.930Z,69.34
2017-06-19T02:04:46.708Z,69.47
2017-06-19T02:07:26.533Z,68.88
2017-06-19T02:10:09.003Z,68.69
2017-06-19T02:12:42.886Z,68.37
2017-06-19T02:15:17.860Z,68.61
2017-06-19T02:17:46.325Z,68.91
2017-06-19T02:23:44.461Z,69.46
2017-06-19T02:26:33.094Z,69.00
2017-06-19T02:32:16.917Z,68.02
2017-06-19T02:35:10.389Z,67.36
2017-06-19T02:37:44.174Z,68.38
2017-06-19T02:40:26.915Z,68.62
2017-06-19T02:43:07.701Z,67.62
2017-06-19T02:52:17.161Z,67.20
2017-06-19T02:54:52.178Z,67.79
2017-06-19T02:57:29.782Z,66.74
2017-06-19T03:00:01.328Z,67.13
2017-06-19T03:02:52.009Z,66.56
2017-06-19T03:05:27.652Z,67.59
2017-06-19T03:07:58.102Z,67.26
2017-06-19T03:10:36.468Z,67.35
2017-06-19T03:13:14.545Z,68.29
2017-06-19T03:16:07.274Z,68.00
2017-06-19T03:21:25.216Z,68.61
2017-06-19T03:42:49.768Z,65.64
2017-06-19T03:57:55.068Z,66.81
2017-06-19T04:00:23.359Z,67.29
2017-06-19T04:06:25.946Z,66.20
2017-06-19T04:16:11.869Z,66.35
2017-06-19T04:18:42.832Z,67.25
2017-06-19T04:21:11.892Z,67.35
2017-06-19T04:23:46.723Z,67.09
2017-06-19T04:26:14.367Z,66.67
2017-06-19T04:28:42.124Z,67.06
2017-06-19T04:31:09.664Z,65.29
2017-06-19T04:33:37.233Z,65.28
2017-06-19T04:36:04.752Z,65.34
2017-06-19T04:38:32.447Z,65.65
2017-06-19T04:41:00.068Z,66.34
2017-06-19T04:43:27.825Z,66.44
2017-06-19T04:45:55.899Z,66.69
2017-06-19T04:48:23.398Z,66.46
2017-06-19T04:50:50.896Z,67.16
2017-06-19T04:53:18.437Z,66.62
2017-06-19T04:55:45.945Z,67.47
2017-06-19T04:58:13.534Z,67.27
2017-06-19T05:00:42.061Z,67.02
2017-06-19T05:03:09.589Z,67.08
2017-06-19T05:05:37.116Z,67.62
2017-06-19T05:08:04.652Z,67.47
2017-06-19T05:10:32.157Z,67.84
2017-06-19T05:12:59.666Z,68.23
2017-06-19T05:15:27.219Z,68.23
2017-06-19T05:17:54.721Z,67.86
2017-06-19T05:20:22.292Z,66.21
2017-06-19T05:22:49.874Z,66.66
2017-06-19T05:25:17.609Z,66.29
2017-06-19T05:27:45.136Z,64.47
2017-06-19T05:30:12.789Z,64.72
2017-06-19T05:32:40.298Z,64.63
2017-06-19T05:35:08.029Z,63.71
2017-06-19T05:37:35.638Z,64.22
2017-06-19T05:40:03.154Z,64.20
2017-06-19T05:42:30.907Z,65.62
2017-06-19T05:44:58.479Z,65.35
2017-06-19T05:47:26.013Z,65.60
2017-06-19T05:49:53.544Z,64.84
2017-06-19T05:52:21.142Z,64.17
2017-06-19T05:54:48.650Z,64.14
2017-06-19T05:57:16.140Z,64.26
2017-06-19T05:59:43.686Z,62.89
2017-06-19T06:02:11.238Z,64.33
2017-06-19T06:04:38.742Z,64.49
2017-06-19T06:07:06.248Z,65.31
2017-06-19T06:09:33.838Z,65.62
2017-06-19T06:12:02.406Z,65.87
2017-06-19T06:14:29.921Z,63.65
2017-06-19T06:16:57.594Z,62.63
2017-06-19T06:19:25.154Z,60.80
2017-06-19T06:21:52.892Z,62.14
2017-06-19T06:24:20.438Z,61.55
2017-06-19T06:26:47.957Z,60.72
2017-06-19T06:29:15.758Z,61.23
2017-06-19T06:31:43.837Z,61.55
2017-06-19T06:34:11.355Z,60.71
2017-06-19T06:36:38.858Z,60.32
2017-06-19T06:39:06.476Z,60.15
2017-06-19T06:41:33.993Z,60.10
2017-06-19T06:44:01.807Z,60.08
2017-06-19T06:46:29.350Z,60.39
2017-06-19T06:48:56.844Z,59.37
2017-06-19T06:51:24.414Z,58.51
2017-06-19T06:53:51.985Z,59.45
2017-06-19T06:56:19.541Z,60.01
2017-06-19T06:58:47.107Z,61.08
2017-06-19T07:01:14.662Z,61.93
2017-06-19T07:03:42.184Z,60.37
2017-06-19T07:06:09.690Z,61.59
2017-06-19T07:08:37.315Z,59.85
2017-06-19T07:11:04.853Z,58.67
2017-06-19T07:13:32.363Z,58.57
2017-06-19T07:15:59.912Z,58.83
2017-06-19T07:18:27.420Z,59.61
2017-06-19T07:20:54.922Z,60.65
2017-06-19T07:23:22.458Z,59.62
2017-06-19T07:25:49.974Z,59.72
2017-06-19T07:28:17.522Z,58.79
2017-06-19T07:30:45.207Z,60.63
2017-06-19T07:33:12.752Z,58.72
2017-06-19T07:35:40.845Z,60.00
2017-06-19T07:38:08.411Z,60.12
2017-06-19T07:40:35.911Z,60.03
2017-06-19T07:43:03.404Z,58.90
2017-06-19T07:45:30.951Z,59.38
2017-06-19T07:47:59.481Z,56.94
2017-06-19T07:50:30.761Z,59.13
2017-06-19T07:52:58.699Z,57.65
2017-06-19T07:55:26.250Z,58.78
2017-06-19T07:57:53.862Z,59.24
2017-06-19T08:00:21.551Z,59.59
2017-06-19T08:02:49.058Z,59.66
2017-06-19T08:05:16.658Z,59.58
2017-06-19T08:07:44.229Z,60.26
2017-06-19T08:10:11.750Z,59.57
2017-06-19T08:12:39.253Z,59.77
2017-06-19T08:15:06.866Z,60.70
2017-06-19T08:17:34.402Z,60.51
2017-06-19T08:20:01.914Z,60.38
2017-06-19T08:22:29.487Z,60.33
2017-06-19T08:24:56.998Z,61.67
2017-06-19T08:27:24.533Z,61.62
2017-06-19T08:29:52.079Z,61.86
2017-06-19T08:32:19.707Z,61.81
2017-06-19T08:34:47.225Z,61.95
2017-06-19T08:37:14.740Z,62.26
2017-06-19T08:39:42.301Z,60.95
2017-06-19T08:42:09.809Z,57.76
2017-06-19T08:44:37.313Z,59.51
2017-06-19T08:47:04.907Z,60.54
2017-06-19T08:49:32.470Z,60.16
2017-06-19T08:51:59.981Z,59.50
2017-06-19T08:54:27.516Z,58.17
2017-06-19T08:56:55.024Z,57.60
2017-06-19T08:59:22.529Z,56.70
2017-06-19T09:01:50.078Z,56.57
2017-06-19T09:04:17.576Z,57.33
2017-06-19T09:06:45.078Z,56.74
2017-06-19T09:09:12.630Z,55.28
2017-06-19T09:11:40.144Z,58.18
2017-06-19T09:14:07.714Z,58.04
2017-06-19T09:16:35.278Z,56.90
2017-06-19T09:19:02.788Z,55.50
2017-06-19T09:21:30.304Z,55.82
2017-06-19T09:23:57.885Z,57.06
2017-06-19T09:26:25.424Z,56.85
2017-06-19T09:28:52.929Z,55.38
2017-06-19T09:31:20.522Z,56.16
2017-06-19T09:33:48.054Z,54.75
2017-06-19T09:36:15.562Z,53.99
2017-06-19T09:38:43.095Z,53.98
2017-06-19T09:41:10.620Z,53.81
2017-06-19T09:43:38.124Z,52.18
2017-06-19T09:46:05.715Z,52.20
2017-06-19T09:48:33.253Z,52.09
2017-06-19T09:51:00.756Z,50.67
2017-06-19T09:53:28.321Z,51.51
2017-06-19T09:55:55.835Z,51.31
2017-06-19T09:58:23.346Z,50.72
2017-06-19T10:00:50.922Z,50.89
2017-06-19T10:03:18.433Z,50.96
2017-06-19T10:05:45.974Z,50.39
2017-06-19T10:08:13.503Z,49.59
2017-06-19T10:10:41.080Z,48.05
2017-06-19T10:13:08.601Z,47.56
2017-06-19T10:15:36.152Z,46.44
2017-06-19T10:18:03.652Z,46.91
2017-06-19T10:20:31.172Z,46.50
2017-06-19T10:22:58.716Z,46.59
2017-06-19T10:25:26.214Z,45.79
2017-06-19T10:27:53.737Z,45.63
2017-06-19T10:30:21.495Z,46.06
2017-06-19T10:32:49.018Z,44.42
2017-06-19T10:35:16.529Z,44.63
2017-06-19T10:37:44.133Z,43.58
2017-06-19T10:40:11.696Z,44.27
2017-06-19T10:42:39.222Z,46.37
2017-06-19T10:45:06.763Z,47.09
2017-06-19T10:47:34.357Z,46.71
2017-06-19T10:50:01.916Z,46.38
2017-06-19T10:52:29.447Z,46.60
2017-06-19T10:54:57.017Z,47.45
2017-06-19T10:57:24.543Z,47.55
2017-06-19T10:59:52.094Z,48.87
2017-06-19T11:02:19.668Z,49.97
2017-06-19T11:04:47.234Z,49.06
2017-06-19T11:07:14.745Z,50.85
2017-06-19T11:09:42.330Z,53.37
2017-06-19T11:12:09.830Z,51.04
2017-06-19T11:14:37.328Z,49.10
2017-06-19T11:17:04.908Z,49.60
2017-06-19T11:19:32.414Z,50.55
2017-06-19T11:21:59.922Z,51.01
2017-06-19T11:24:27.513Z,52.00
2017-06-19T11:26:55.027Z,53.54
2017-06-19T11:29:22.554Z,54.30
2017-06-19T11:31:50.093Z,52.29
2017-06-19T11:34:17.589Z,50.81
2017-06-19T11:36:45.173Z,50.13
2017-06-19T11:39:13.525Z,48.66
2017-06-19T11:41:49.212Z,52.05
2017-06-19T11:44:16.816Z,54.20
2017-06-19T11:46:44.818Z,52.87
2017-06-19T11:49:12.337Z,50.36
2017-06-19T11:51:40.812Z,50.87
2017-06-19T11:54:08.352Z,50.40
2017-06-19T11:56:35.906Z,49.46
2017-06-19T11:59:03.495Z,48.50
2017-06-19T12:01:31.056Z,47.76
2017-06-19T12:03:58.570Z,47.57
2017-06-19T12:06:26.087Z,47.39
2017-06-19T12:08:53.682Z,46.70
2017-06-19T12:11:21.188Z,48.16
2017-06-19T12:13:48.739Z,47.54
2017-06-19T12:16:16.324Z,48.00
2017-06-19T12:18:43.878Z,47.47
2017-06-19T12:21:11.385Z,48.00
2017-06-19T12:23:39.735Z,48.46
2017-06-19T12:26:07.260Z,48.07
2017-06-19T12:28:34.811Z,47.66
2017-06-19T12:31:02.352Z,47.90
2017-06-19T12:33:29.878Z,47.06
2017-06-19T12:35:57.773Z,47.65
2017-06-19T12:38:25.319Z,46.81
2017-06-19T12:40:52.850Z,46.29
2017-06-19T12:43:20.360Z,44.12
2017-06-19T12:45:47.896Z,44.93
2017-06-19T12:48:15.458Z,44.53
2017-06-19T12:50:43.011Z,42.97
2017-06-19T12:53:10.626Z,43.82
2017-06-19T12:55:38.203Z,42.89
2017-06-19T12:58:05.708Z,42.21
2017-06-19T13:00:33.510Z,41.67
2017-06-19T13:03:01.013Z,41.84
2017-06-19T13:05:28.509Z,41.92
2017-06-19T13:07:56.076Z,42.62
2017-06-19T13:10:23.606Z,41.48
2017-06-19T13:12:51.106Z,41.27
2017-06-19T13:15:18.665Z,40.42
2017-06-19T13:17:46.179Z,41.18
2017-06-19T13:20:13.709Z,41.62
2017-06-19T13:22:41.399Z,41.59
2017-06-19T13:25:08.992Z,41.17
2017-06-19T13:27:36.506Z,41.65
2017-06-19T13:30:11.191Z,42.59
2017-06-19T13:32:38.704Z,42.10
2017-06-19T13:35:06.205Z,42.25
2017-06-19T13:37:33.768Z,41.98
2017-06-19T13:40:01.296Z,42.66
2017-06-19T13:42:28.863Z,42.58
2017-06-19T13:44:56.412Z,42.82
2017-06-19T13:47:23.915Z,42.65
2017-06-19T13:49:51.432Z,42.81
2017-06-19T13:52:18.988Z,42.94
2017-06-19T13:54:46.499Z,42.54
2017-06-19T13:57:14.309Z,42.69
2017-06-19T13:59:41.883Z,42.49
2017-06-19T14:02:09.725Z,42.80
2017-06-19T14:04:37.225Z,43.07
2017-06-19T14:07:04.741Z,43.08
2017-06-19T14:09:32.354Z,43.73
2017-06-19T14:11:59.861Z,42.66
2017-06-19T14:14:27.363Z,42.16
2017-06-19T14:16:55.292Z,42.48
2017-06-19T14:19:22.974Z,41.65
2017-06-19T14:21:50.467Z,42.55
2017-06-19T14:24:18.147Z,42.71
2017-06-19T14:26:45.756Z,42.66
2017-06-19T14:29:13.660Z,41.52
2017-06-19T14:31:41.249Z,41.21
2017-06-19T14:34:08.777Z,40.88
2017-06-19T14:36:36.563Z,41.74
2017-06-19T14:39:11.509Z,41.20
2017-06-19T14:41:39.052Z,42.81
2017-06-19T14:44:06.620Z,41.59
2017-06-19T14:46:34.197Z,41.63
2017-06-19T14:49:01.769Z,42.73
2017-06-19T14:51:29.344Z,42.95
2017-06-19T14:53:56.912Z,42.62
2017-06-19T14:56:24.421Z,41.75
2017-06-19T14:58:51.949Z,42.37
2017-06-19T15:01:19.579Z,43.43
2017-06-19T15:03:47.409Z,43.18
2017-06-19T15:06:14.937Z,43.13
2017-06-19T15:08:43.292Z,43.52
2017-06-19T15:11:10.864Z,42.23
2017-06-19T15:13:38.430Z,43.07
2017-06-19T15:16:06.005Z,43.26
2017-06-19T15:18:33.535Z,42.00
2017-06-19T15:21:16.783Z,42.94
2017-06-19T15:23:49.974Z,43.64
2017-06-19T15:26:17.550Z,44.97
2017-06-19T15:28:45.084Z,43.44
2017-06-19T15:31:12.656Z,44.26
2017-06-19T15:33:40.189Z,42.78
2017-06-19T15:36:07.710Z,42.65
2017-06-19T15:38:35.241Z,42.08
2017-06-19T15:41:03.554Z,41.88
2017-06-19T15:43:31.053Z,42.63
2017-06-19T15:45:58.606Z,43.02
2017-06-19T15:48:26.234Z,42.36
2017-06-19T15:50:53.758Z,42.67
2017-06-19T15:53:21.359Z,42.56
2017-06-19T15:55:48.896Z,43.17
2017-06-19T15:58:16.404Z,43.93
2017-06-19T16:00:43.990Z,45.61
2017-06-19T16:03:11.512Z,45.71
2017-06-19T16:05:39.024Z,46.22
2017-06-19T16:08:06.671Z,46.02
2017-06-19T16:10:34.178Z,45.00
2017-06-19T16:13:01.690Z,44.95
2017-06-19T16:15:30.135Z,45.13
2017-06-19T16:17:57.637Z,44.72
2017-06-19T16:20:25.149Z,44.31
2017-06-19T16:22:52.733Z,44.74
2017-06-19T16:25:21.152Z,44.30
2017-06-19T16:27:48.862Z,44.61
2017-06-19T16:30:16.780Z,43.85
2017-06-19T16:32:44.290Z,43.52
2017-06-19T16:35:11.789Z,43.25
2017-06-19T16:37:40.075Z,43.71
2017-06-19T16:40:08.080Z,43.28
2017-06-19T16:42:35.593Z,43.37
2017-06-19T16:45:03.141Z,43.14
2017-06-19T16:47:30.995Z,42.69
2017-06-19T16:49:58.568Z,43.29
2017-06-19T16:52:26.208Z,43.06
2017-06-19T16:54:54.327Z,43.70
2017-06-19T16:57:22.129Z,44.15
2017-06-19T16:59:49.836Z,44.15
2017-06-19T17:02:17.506Z,44.24
2017-06-19T17:04:45.066Z,44.79
2017-06-19T17:07:12.569Z,45.19
2017-06-19T17:09:40.128Z,44.71
2017-06-19T17:12:07.688Z,45.49
2017-06-19T17:14:35.216Z,44.91
2017-06-19T17:17:03.409Z,45.01
2017-06-19T17:19:30.969Z,45.67
2017-06-19T17:21:58.516Z,45.79
2017-06-19T17:24:26.306Z,46.29
2017-06-19T17:26:54.377Z,46.08
2017-06-19T17:29:22.695Z,45.73
2017-06-19T17:31:50.431Z,45.94
2017-06-19T17:34:17.993Z,45.48
2017-06-19T17:36:46.391Z,45.37
2017-06-19T17:39:13.945Z,45.77
2017-06-19T17:41:41.898Z,45.09
2017-06-19T17:44:09.657Z,45.44
2017-06-19T17:46:37.702Z,45.32
2017-06-19T17:49:06.931Z,45.77
2017-06-19T17:51:35.042Z,45.94
2017-06-19T17:54:02.629Z,45.40
2017-06-19T17:56:30.588Z,46.40
2017-06-19T17:58:58.722Z,45.63
2017-06-19T18:01:26.660Z,45.63
2017-06-19T18:03:54.360Z,45.98
2017-06-19T18:06:21.957Z,46.12
2017-06-19T18:08:49.579Z,46.25
2017-06-19T18:11:17.120Z,46.47
2017-06-19T18:13:45.093Z,46.46
2017-06-19T18:16:12.772Z,46.59
2017-06-19T18:18:40.937Z,46.79
2017-06-19T18:21:09.122Z,46.44
2017-06-19T18:23:36.722Z,46.71
2017-06-19T18:26:04.906Z,46.47
2017-06-19T18:28:32.441Z,46.73
2017-06-19T18:30:59.998Z,47.30
2017-06-19T18:33:27.541Z,47.54
2017-06-19T18:35:55.067Z,47.95
2017-06-19T18:38:22.675Z,48.11
2017-06-19T18:40:50.215Z,48.15
2017-06-19T18:43:17.742Z,47.90
2017-06-19T18:45:45.329Z,48.18
2017-06-19T18:48:12.885Z,48.96
2017-06-19T18:50:40.684Z,49.34
2017-06-19T18:53:08.324Z,48.84
2017-06-19T18:55:35.877Z,48.81
2017-06-19T18:58:03.404Z,48.79
2017-06-19T19:00:31.145Z,49.22
2017-06-19T19:02:58.667Z,49.52
2017-06-19T19:05:26.445Z,49.77
2017-06-19T19:07:54.068Z,49.51
2017-06-19T19:10:21.602Z,49.99
2017-06-19T19:12:49.178Z,49.54
2017-06-19T19:15:16.749Z,49.10
2017-06-19T19:17:44.286Z,49.53
2017-06-19T19:20:12.131Z,50.02
2017-06-19T19:22:39.697Z,50.95
2017-06-19T19:25:07.220Z,51.17
2017-06-19T19:27:34.953Z,51.70
2017-06-19T19:30:06.240Z,52.42
2017-06-19T19:32:33.795Z,53.15
2017-06-19T19:35:01.310Z,53.20
2017-06-19T19:37:28.865Z,52.32
2017-06-19T19:39:56.390Z,52.95
2017-06-19T19:42:24.145Z,52.42
2017-06-19T19:44:51.773Z,52.95
2017-06-19T19:47:19.338Z,53.18
2017-06-19T19:49:46.907Z,53.41
2017-06-19T19:52:15.326Z,53.39
2017-06-19T19:54:42.860Z,53.67
2017-06-19T19:57:10.715Z,54.17
2017-06-19T19:59:38.292Z,54.47
2017-06-19T20:02:06.709Z,54.50
2017-06-19T20:04:34.217Z,54.72
2017-06-19T20:07:01.809Z,55.19
2017-06-19T20:09:29.368Z,55.67
2017-06-19T20:11:56.901Z,55.66
2017-06-19T20:14:24.694Z,55.46
2017-06-19T20:16:52.229Z,55.51
2017-06-19T20:19:19.737Z,56.21
2017-06-19T20:21:47.306Z,57.60
2017-06-19T20:24:15.171Z,58.09
2017-06-19T20:26:42.706Z,58.77
2017-06-19T20:29:10.354Z,59.60
2017-06-19T20:31:37.916Z,60.06
2017-06-19T20:34:05.433Z,61.75
2017-06-19T20:36:33.054Z,61.82
2017-06-19T20:39:00.744Z,59.96
2017-06-19T20:41:28.268Z,59.02
2017-06-19T20:43:55.806Z,58.64
2017-06-19T20:46:23.427Z,58.57
2017-06-19T20:48:50.957Z,58.89
2017-06-19T20:51:18.460Z,59.32
2017-06-19T20:53:46.015Z,59.11
2017-06-19T20:56:13.814Z,59.79
2017-06-19T20:58:41.391Z,59.70
2017-06-19T21:01:08.987Z,59.40
2017-06-19T21:03:36.747Z,59.33
2017-06-19T21:06:04.608Z,59.92
2017-06-19T21:08:32.201Z,59.90
2017-06-19T21:10:59.713Z,59.49
2017-06-19T21:13:27.240Z,59.51
2017-06-19T21:15:54.813Z,59.35
2017-06-19T21:18:22.578Z,59.30
2017-06-19T21:20:50.092Z,59.31
2017-06-19T21:23:17.666Z,59.43
2017-06-19T21:25:45.185Z,58.70
2017-06-19T21:28:12.961Z,60.37
2017-06-19T21:30:40.522Z,60.56
2017-06-19T21:33:08.034Z,60.24
2017-06-19T21:35:35.558Z,60.31
2017-06-19T21:38:03.180Z,60.31
2017-06-19T21:40:30.724Z,60.72
2017-06-19T21:42:58.512Z,60.93
2017-06-19T21:45:26.078Z,60.95
2017-06-19T21:47:53.589Z,61.53
2017-06-19T21:50:21.133Z,60.84
2017-06-19T21:52:48.673Z,60.56
2017-06-19T21:55:16.199Z,60.42
2017-06-19T21:57:43.789Z,60.27
2017-06-19T22:00:11.410Z,60.70
2017-06-19T22:02:38.938Z,61.57
2017-06-19T22:05:06.499Z,61.32
2017-06-19T22:07:34.143Z,61.98
2017-06-19T22:10:01.711Z,61.82
2017-06-19T22:12:29.219Z,62.09
2017-06-19T22:14:56.809Z,62.41
2017-06-19T22:17:24.432Z,62.78
2017-06-19T22:19:52.018Z,63.85
2017-06-19T22:22:35.411Z,63.89
2017-06-19T22:25:02.995Z,63.29
2017-06-19T22:27:30.530Z,63.77
2017-06-19T22:29:58.158Z,63.90
2017-06-19T22:32:25.727Z,63.23
2017-06-19T22:34:53.241Z,62.65
2017-06-19T22:37:21.013Z,63.16
2017-06-19T22:39:48.585Z,62.97
2017-06-19T22:42:16.113Z,63.70
2017-06-19T22:44:43.691Z,63.68
2017-06-19T22:47:11.253Z,64.56
2017-06-19T22:49:38.793Z,65.71
2017-06-19T22:52:06.335Z,64.54
2017-06-19T22:54:33.880Z,64.87
2017-06-19T22:57:01.693Z,64.99
2017-06-19T22:59:29.456Z,64.55
2017-06-19T23:01:57.017Z,64.50
2017-06-19T23:04:24.556Z,64.16
2017-06-19T23:06:52.743Z,64.34
2017-06-19T23:09:20.372Z,64.34
2017-06-19T23:11:48.926Z,64.09
2017-06-19T23:14:16.446Z,64.14
2017-06-19T23:16:44.016Z,64.56
2017-06-19T23:19:11.518Z,64.19
2017-06-19T23:21:39.046Z,64.04
2017-06-19T23:24:06.611Z,65.59
2017-06-19T23:26:34.405Z,65.59
2017-06-19T23:29:01.958Z,65.14
2017-06-19T23:31:29.676Z,66.31
2017-06-19T23:33:57.212Z,67.19
2017-06-19T23:36:25.082Z,67.77
2017-06-19T23:38:52.713Z,67.83
2017-06-19T23:41:20.303Z,67.36
2017-06-19T23:43:47.833Z,66.28
2017-06-19T23:46:15.391Z,66.73
2017-06-19T23:48:42.942Z,66.78
2017-06-19T23:51:10.721Z,66.79
2017-06-19T23:53:38.388Z,66.83
2017-06-19T23:56:05.904Z,66.06
2017-06-19T23:58:33.544Z,66.96
